Swinomish — WC5223 — position and weather

sailwx.info

Track history (hours):
 
Tides and Currents Weather Stations Pressure Air Temp Water Temp Dewpoint Dewpoint Depression Visibility Wind Speed Wind Dir Waves Ship Positions

Swinomish

Owner: DUNLAP TOWING CO, LA CONNER, WA. More information available from US FCC via Universal Licensing System and Coast Guard Vessel Documentation Center.

Last reported at 2016-Jun-28 21:33 UTC. Time now 2016-Jun-28 22:25 UTC.
Position N 47°28' W 122°26'.

Length 15 m; draft 3.5 m.

Type: Tug. MMSI: 366972050.

Date/timePositionNaut miles runAvg speedWind from/ knotsBaromVisibWave heightAir tempDewpointWater temp
2016-Jun-28 21:33N 47°28' W 122°26'1 1.5
2016-Jun-28 20:33N 47°30' W 122°27'2 1.9
2016-Jun-28 19:33N 47°32' W 122°28'2 2.1
2016-Jun-28 18:33N 47°34' W 122°28'2 2.4
2016-Jun-28 17:33N 47°36' W 122°28'3 2.6
2016-Jun-28 16:33N 47°39' W 122°29'2 2.4
2016-Jun-28 15:33N 47°41' W 122°29'2 2.4
2016-Jun-28 14:33N 47°43' W 122°28'2 2.3
2016-Jun-28 13:33N 47°46' W 122°28'2 1.7
2016-Jun-28 12:33N 47°47' W 122°26'1 1.1
2016-Jun-28 11:33N 47°48' W 122°26'2 2.0
2016-Jun-28 10:33N 47°50' W 122°25'3 2.7
2016-Jun-28 09:33N 47°52' W 122°23'3 3.2
2016-Jun-28 08:33N 47°55' W 122°21'3 3.3
2016-Jun-28 07:33N 47°58' W 122°20'3 3.2
2016-Jun-28 06:32N 48°02' W 122°22'16 2.2
2016-Jun-27 23:33N 48°15' W 122°33'2 2.4
2016-Jun-27 22:33N 48°17' W 122°31'2 2.3
2016-Jun-27 21:33N 48°19' W 122°31'2 1.9
2016-Jun-27 20:30N 48°21' W 122°33'1 1.2
2016-Jun-27 19:28N 48°22' W 122°33'0 0.5
2016-Jun-27 18:33N 48°22' W 122°32'0 0.0
2016-Jun-27 17:33N 48°22' W 122°32'0 0.0
2016-Jun-27 16:33N 48°22' W 122°32'2 2.0
2016-Jun-27 15:21N 48°24' W 122°30'0 0.0
2016-Jun-27 14:33N 48°24' W 122°30'0 0.0
2016-Jun-27 13:33N 48°24' W 122°30'  
2016-Jun-20 04:33N 48°24' W 122°30'0 0.0
2016-Jun-20 03:33N 48°24' W 122°30'4 4.2
2016-Jun-20 02:32N 48°20' W 122°31'7 6.1
2016-Jun-20 01:19N 48°12' W 122°33'10 6.0
2016-Jun-19 23:33N 48°04' W 122°24'6 6.4
2016-Jun-19 22:33N 48°00' W 122°16'2 2.1
2016-Jun-19 21:33N 47°59' W 122°13'7 7.3
2016-Jun-19 20:33N 47°54' W 122°22'9 8.9
2016-Jun-19 19:33N 47°57' W 122°34'11 3.5
2016-Jun-19 16:22N 48°06' W 122°44'7 8.0
2016-Jun-19 15:28N 48°01' W 122°37'8 9.3
2016-Jun-19 14:33N 47°55' W 122°28'6 5.9
2016-Jun-19 13:33N 47°57' W 122°20'4 4.2
2016-Jun-19 12:33N 47°59' W 122°14'4 4.3
2016-Jun-19 11:33N 47°57' W 122°19'9 8.5
2016-Jun-19 10:33N 47°49' W 122°24'9 9.0
2016-Jun-19 09:33N 47°40' W 122°27'9 8.7
2016-Jun-19 08:33N 47°31' W 122°28'9 8.9
2016-Jun-19 07:33N 47°23' W 122°32'8 7.8
2016-Jun-19 06:33N 47°16' W 122°26'5 4.5
2016-Jun-19 05:33N 47°17' W 122°32'1210.4
2016-Jun-19 04:22N 47°10' W 122°47'  
Track history (hours):
 
Tides and Currents Weather Stations Pressure Air Temp Water Temp Dewpoint Dewpoint Depression Visibility Wind Speed Wind Dir Waves Ship Positions

Swinomish

Owner: DUNLAP TOWING CO, LA CONNER, WA. More information available from US FCC via Universal Licensing System and Coast Guard Vessel Documentation Center.

Last reported at 2016-Jun-28 21:33 UTC. Time now 2016-Jun-28 22:25 UTC.
Position N 47°28' W 122°26'.

Length 15 m; draft 3.5 m.

Type: Tug. MMSI: 366972050.

Date/timePositionNaut miles runAvg speedWind from/ knotsBaromVisibWave heightAir tempDewpointWater temp
2016-Jun-28 21:33N 47°28' W 122°26'1 1.5
2016-Jun-28 20:33N 47°30' W 122°27'2 1.9
2016-Jun-28 19:33N 47°32' W 122°28'2 2.1
2016-Jun-28 18:33N 47°34' W 122°28'2 2.4
2016-Jun-28 17:33N 47°36' W 122°28'3 2.6
2016-Jun-28 16:33N 47°39' W 122°29'2 2.4
2016-Jun-28 15:33N 47°41' W 122°29'2 2.4
2016-Jun-28 14:33N 47°43' W 122°28'2 2.3
2016-Jun-28 13:33N 47°46' W 122°28'2 1.7
2016-Jun-28 12:33N 47°47' W 122°26'1 1.1
2016-Jun-28 11:33N 47°48' W 122°26'2 2.0
2016-Jun-28 10:33N 47°50' W 122°25'3 2.7
2016-Jun-28 09:33N 47°52' W 122°23'3 3.2
2016-Jun-28 08:33N 47°55' W 122°21'3 3.3
2016-Jun-28 07:33N 47°58' W 122°20'3 3.2
2016-Jun-28 06:32N 48°02' W 122°22'16 2.2
2016-Jun-27 23:33N 48°15' W 122°33'2 2.4
2016-Jun-27 22:33N 48°17' W 122°31'2 2.3
2016-Jun-27 21:33N 48°19' W 122°31'2 1.9
2016-Jun-27 20:30N 48°21' W 122°33'1 1.2
2016-Jun-27 19:28N 48°22' W 122°33'0 0.5
2016-Jun-27 18:33N 48°22' W 122°32'0 0.0
2016-Jun-27 17:33N 48°22' W 122°32'0 0.0
2016-Jun-27 16:33N 48°22' W 122°32'2 2.0
2016-Jun-27 15:21N 48°24' W 122°30'0 0.0
2016-Jun-27 14:33N 48°24' W 122°30'0 0.0
2016-Jun-27 13:33N 48°24' W 122°30'  
2016-Jun-20 04:33N 48°24' W 122°30'0 0.0
2016-Jun-20 03:33N 48°24' W 122°30'4 4.2
2016-Jun-20 02:32N 48°20' W 122°31'7 6.1
2016-Jun-20 01:19N 48°12' W 122°33'10 6.0
2016-Jun-19 23:33N 48°04' W 122°24'6 6.4
2016-Jun-19 22:33N 48°00' W 122°16'2 2.1
2016-Jun-19 21:33N 47°59' W 122°13'7 7.3
2016-Jun-19 20:33N 47°54' W 122°22'9 8.9
2016-Jun-19 19:33N 47°57' W 122°34'11 3.5
2016-Jun-19 16:22N 48°06' W 122°44'7 8.0
2016-Jun-19 15:28N 48°01' W 122°37'8 9.3
2016-Jun-19 14:33N 47°55' W 122°28'6 5.9
2016-Jun-19 13:33N 47°57' W 122°20'4 4.2
2016-Jun-19 12:33N 47°59' W 122°14'4 4.3
2016-Jun-19 11:33N 47°57' W 122°19'9 8.5
2016-Jun-19 10:33N 47°49' W 122°24'9 9.0
2016-Jun-19 09:33N 47°40' W 122°27'9 8.7
2016-Jun-19 08:33N 47°31' W 122°28'9 8.9
2016-Jun-19 07:33N 47°23' W 122°32'8 7.8
2016-Jun-19 06:33N 47°16' W 122°26'5 4.5
2016-Jun-19 05:33N 47°17' W 122°32'1210.4
2016-Jun-19 04:22N 47°10' W 122°47'  

Dump ship's entire track history